Banja Luka, Bosnia and Herzegovina
Current Conditions -  °F | °C
As of 11:00 AM on Friday 31 Oct 2014 (Local Time) from LQBK Reporting Station
Few Clouds Few Clouds  
Wind Chill: 50°   Ceiling: Unl
Heat Index: 50°   Visibility: 4mi
Dew Point: 43°   Wind: 2mph
Humidity: 76%   Direction: 320°NW
Pressure: 30.39"   Gusts: NA
Location:  44.78°N, 17.19°E
Report Text: LQBK 310900Z 32002KT 6000 FEW030 10/06 Q1029 NOSIG
Loading
Personal Weather Stations






























Interactive Weather Map
Tropical Storm Tracking
New forecast layout! Learn more

10-Day Weather Forecast

Advertisements
Track Severe Weather on mobile